• Join FlightAware (Why Join?)
  • Login
  • US Flag 
Trick or treat! (Boo!!) 
06:01AM EDT


 

Airport Tracker/Info


-or-


 

Live Flight TrackerFlight Track Log ✈ ASQ4343 ✈ 15-May-2013 ✈ KIAH - KOMA

Flight Track Log - Related Links

Times and Time Zones

All times are in EDT time to prevent confusion due to time zone crossing. See the ASQ4343 flight status page for this flight to view local times or setup timezone preferences in your user account.

Time Position Orientation Groundspeed Altitude Reporting Facility
EDT Latitude Longitude Course Direction KTS MPH feet Rate Location/Type
02:59PM 29.9772 -95.3056 337° Northwest 181 208 600  Level Houston Center
02:59PM 29.9858 -95.2853 64° Northeast 164 189 1,400 1,740 Climbing Houston Center
03:00PM 30.0489 -95.2872 358° North 287 330 3,100 1,920 Climbing Houston Center
03:01PM 30.0814 -95.2961 347° North 271 312 4,400 2,640 Climbing Houston Center
03:02PM 30.3895 -95.5719 334° Northwest  Level FlightAware Approximate
03:02PM 30.1514 -95.3406 331° Northwest 288 331 7,300  Level Houston Center
03:03PM 30.4923 -95.6291 334° Northwest  Level FlightAware Approximate
03:03PM 30.2178 -95.3939 325° Northwest 292 336 10,100  Level Houston Center
03:04PM 30.5968 -95.6817 337° Northwest  Level FlightAware Approximate
03:04PM 30.3075 -95.4667 325° Northwest 332 382 11,300  Level Houston Center
03:05PM 30.3889 -95.5344 324° Northwest 362 417 13,100 1,620 Climbing Houston Center
03:06PM 30.4736 -95.6022 325° Northwest 367 422 14,700 1,500 Climbing Houston Center
03:07PM 30.5622 -95.6703 327° Northwest 379 436 16,200 1,440 Climbing Houston Center
03:08PM 30.6636 -95.7203 337° Northwest 394 453 17,700 1,380 Climbing Houston Center
03:09PM 30.7714 -95.7781 335° Northwest 397 457 19,100 1,380 Climbing Houston Center
03:10PM 30.8744 -95.8336 335° Northwest 403 464 20,600 1,500 Climbing Houston Center
03:11PM 30.9786 -95.8897 335° Northwest 408 470 22,200 1,740 Climbing Houston Center
03:12PM 31.1022 -95.9547 336° Northwest 404 465 24,300 1,680 Climbing Houston Center
03:13PM 31.1969 -95.9853 345° North 405 466 25,500 1,440 Climbing Fort Worth Center
03:14PM 31.3100 -96.0103 349° North 405 466 27,000 1,500 Climbing Fort Worth Center
03:15PM 31.4231 -96.0378 348° North 413 475 28,500 1,500 Climbing Fort Worth Center
03:16PM 31.5381 -96.0653 348° North 413 475 30,000 1,440 Climbing Fort Worth Center
03:17PM 31.6511 -96.0906 349° North 413 475 31,400 1,440 Climbing Fort Worth Center
03:18PM 31.7661 -96.1183 348° North 417 480 32,900 1,500 Climbing Fort Worth Center
03:19PM 31.8750 -96.1436 349° North 405 466 34,400 1,260 Climbing Fort Worth Center
03:20PM 31.9900 -96.1667 350° North 400 460 35,500 1,020 Climbing Fort Worth Center
03:21PM 32.1050 -96.1725 358° North 406 467 36,500 720 Climbing Fort Worth Center
03:22PM 32.2197 -96.1758 359° North 406 467 37,000 240 Climbing Fort Worth Center
03:23PM 32.3389 -96.1814 358° North 417 480 37,000  Level Fort Worth Center
03:24PM 32.4558 -96.1872 358° North 449 517 37,000  Level Fort Worth Center
03:25PM 32.6019 -96.1928 358° North 468 539 37,000  Level Fort Worth Center
03:26PM 32.7272 -96.1983 358° North 483 556 37,000  Level Fort Worth Center
03:27PM 32.8819 -96.2039 358° North 494 568 37,000  Level Fort Worth Center
03:28PM 33.0092 -96.2094 358° North 504 580 37,000  Level Fort Worth Center
03:29PM 33.1681 -96.2172 358° North 511 588 37,000  Level Fort Worth Center
03:30PM 33.2911 -96.2231 358° North 511 588 37,000  Level Fort Worth Center
03:31PM 33.4478 -96.2308 358° North 511 588 37,000  Level Fort Worth Center
03:32PM 33.5731 -96.2317 360° North 499 574 37,000  Level Fort Worth Center
03:33PM 33.7275 -96.2322 360° North 494 568 37,000  Level Fort Worth Center
03:34PM 33.8611 -96.2353 359° North 494 568 37,000  Level Fort Worth Center
03:35PM 33.9967 -96.2361 360° North 489 563 37,000  Level Fort Worth Center
03:36PM 34.1344 -96.2342 North 489 563 37,000  Level Fort Worth Center
03:37PM 34.2722 -96.2347 360° North 489 563 37,000  Level Fort Worth Center
03:38PM 34.4119 -96.2331 North 494 568 37,000  Level Fort Worth Center
03:39PM 34.5517 -96.2311 North 494 568 37,000  Level Fort Worth Center
03:40PM 34.6894 -96.2317 360° North 494 568 37,000  Level Fort Worth Center
03:41PM 34.8250 -96.2297 North 494 568 37,000  Level Fort Worth Center
03:42PM 34.9647 -96.2303 360° North 494 568 37,000  Level Fort Worth Center
03:44PM 35.2603 -96.2261 North 494 568 37,000  Level Kansas City Center
03:45PM 35.3956 -96.2253 360° North 491 565 37,000  Level Kansas City Center
03:46PM 35.5311 -96.2253 360° North 489 563 37,000  Level Kansas City Center
03:47PM 35.6944 -96.2242 360° North 490 564 37,000  Level Kansas City Center
03:48PM 35.8158 -96.2231 360° North 487 560 37,000  Level Kansas City Center
03:49PM 35.9514 -96.2233 360° North 486 559 37,000  Level Kansas City Center
03:50PM 36.1144 -96.2236 360° North 485 558 37,000  Level Kansas City Center
03:51PM 36.2494 -96.2236 360° North 483 556 37,000  Level Kansas City Center
03:52PM 36.3833 -96.2228 360° North 479 551 37,000  Level Kansas City Center
03:53PM 36.5175 -96.2236 360° North 478 550 37,000  Level Kansas City Center
03:54PM 36.6508 -96.2231 360° North 476 548 37,000  Level Kansas City Center
03:55PM 36.7856 -96.2211 North 478 550 37,000  Level Kansas City Center
03:57PM 36.9189 -96.2219 360° North 478 550 37,000  Level Kansas City Center
03:58PM 37.0775 -96.2253 359° North 474 545 37,000  Level Kansas City Center
03:59PM 37.2089 -96.2272 359° North 472 543 37,000  Level Kansas City Center
04:00PM 37.3378 -96.2214 North 464 534 37,000  Level Kansas City Center
04:01PM 37.4661 -96.2192 North 460 529 37,000  Level Kansas City Center
04:02PM 37.5975 -96.2183 360° North 466 536 37,000  Level Kansas City Center
04:03PM 37.7222 -96.2181 360° North 475 547 37,000  Level Kansas City Center
04:04PM 37.8803 -96.2169 360° North 474 545 37,000  Level Kansas City Center
04:05PM 38.0117 -96.2158 360° North 473 544 37,000  Level Kansas City Center
04:06PM 38.1428 -96.2164 360° North 472 543 37,000  Level Kansas City Center
04:07PM 38.2744 -96.2167 360° North 463 533 37,000 -300 Level Kansas City Center
04:08PM 38.4200 -96.2153 360° North 466 536 36,400 -540 Descending Kansas City Center
04:09PM 38.5439 -96.2150 360° North 462 532 36,000 -240 Descending Kansas City Center
04:10PM 38.6894 -96.2139 360° North 468 539 36,000  Level Kansas City Center
04:11PM 38.8164 -96.2136 360° North 472 543 36,000  Level Kansas City Center
04:12PM 38.9631 -96.2131 360° North 472 543 36,000  Level Kansas City Center
04:13PM 39.0872 -96.2122 360° North 467 537 36,000 -60 Level Kansas City Center
04:14PM 39.2133 -96.2119 360° North 470 541 35,900 -600 Descending Kansas City Center
04:15PM 39.3583 -96.2106 360° North 456 525 34,800 -1,020 Descending Kansas City Center
04:16PM 39.4836 -96.2103 360° North 452 520 33,900 -1,020 Descending Kansas City Center
04:17PM 39.6194 -96.2092 360° North 460 529 32,800 -1,020 Descending Kansas City Center
04:18PM 39.7419 -96.2083 360° North 458 527 31,900 -960 Descending Kansas City Center
04:19PM 39.8786 -96.2069 360° North 459 528 30,900 -1,500 Descending Kansas City Center
04:20PM 40.0075 -96.2067 360° North 462 532 28,900 -2,280 Descending Kansas City Center
04:21PM 40.1514 -96.2056 360° North 464 534 26,200 -2,340 Descending Kansas City Center
04:22PM 40.2747 -96.1969 North 458 527 23,900 -2,400 Descending Minneapolis Center
04:23PM 40.3775 -96.1639 14° North 431 496 21,800 -2,820 Descending Minneapolis Center
04:24PM 40.4189 -96.1747 349° North 440 506 21,000 -2,280 Descending Minneapolis Center
04:24PM 40.4669 -96.1539 18° North 422 486 20,000 -2,280 Descending Minneapolis Center
04:25PM 40.5344 -96.1575 358° North 425 489 18,700 -2,580 Descending Minneapolis Center
04:25PM 40.5892 -96.1375 16° North 411 473 17,400 -2,460 Descending Minneapolis Center
04:26PM 40.6461 -96.1406 358° North 411 473 16,200 -2,400 Descending Minneapolis Center
04:26PM 40.6994 -96.1253 12° North 397 457 15,000 -2,280 Descending Minneapolis Center
04:27PM 40.7544 -96.1253 360° North 398 458 13,900 -2,400 Descending Minneapolis Center
04:27PM 40.8031 -96.1111 12° North 366 421 12,600 -2,340 Descending Minneapolis Center
04:28PM 40.8533 -96.1111 360° North 372 428 11,500 -1,920 Descending Minneapolis Center
04:28PM 40.9089 -96.0992 North 340 391 10,500 -1,380 Descending Minneapolis Center
04:29PM 40.9436 -96.0983 North 341 392 10,100 -1,260 Descending Minneapolis Center
04:29PM 41.0025 -96.0886 North 297 342 9,100 -1,680 Descending Minneapolis Center
04:30PM 41.0436 -96.0828 North 314 361 8,400 -1,620 Descending Minneapolis Center
04:30PM 41.0875 -96.0764 North 297 342 7,500 -1,500 Descending Minneapolis Center
04:31PM 41.1242 -96.0736 North 301 346 6,900 -1,380 Descending Minneapolis Center
04:31PM 41.1733 -96.0775 357° North 284 327 6,000 -1,020 Descending Minneapolis Center
04:32PM 41.2044 -96.0769 North 294 338 5,900 -420 Descending Minneapolis Center
04:32PM 41.2469 -96.0858 351° North 249 287 5,600 -900 Descending Minneapolis Center
04:33PM 41.2750 -96.0839 North 275 316 5,000 -1,500 Descending Minneapolis Center
04:33PM 41.3125 -96.0619 24° Northeast 241 277 4,100 -1,020 Descending Minneapolis Center
04:34PM 41.3228 -96.0375 61° Northeast 250 288 4,000 -240 Descending Minneapolis Center